createdAt,value
2023-03-30T00:00:19.118Z,2.35
2023-03-30T00:02:50.802Z,2.40
2023-03-30T00:05:18.793Z,2.72
2023-03-30T00:07:46.015Z,2.10
2023-03-30T00:10:20.148Z,2.42
2023-03-30T00:12:51.088Z,2.47
2023-03-30T00:15:21.615Z,2.03
2023-03-30T00:17:48.636Z,2.00
2023-03-30T00:20:17.423Z,2.10
2023-03-30T00:22:45.430Z,2.10
2023-03-30T00:25:17.383Z,2.38
2023-03-30T00:27:45.092Z,1.92
2023-03-30T00:30:15.296Z,2.38
2023-03-30T00:32:43.407Z,2.30
2023-03-30T00:35:12.703Z,1.85
2023-03-30T00:37:39.781Z,2.60
2023-03-30T00:40:09.237Z,2.50
2023-03-30T00:42:37.078Z,2.10
2023-03-30T00:45:18.391Z,2.03
2023-03-30T00:47:52.182Z,1.90
2023-03-30T00:50:21.914Z,1.75
2023-03-30T00:52:52.554Z,2.40
2023-03-30T00:55:22.104Z,2.22
2023-03-30T00:57:49.555Z,2.05
2023-03-30T01:00:17.365Z,2.17
2023-03-30T01:02:55.900Z,2.53
2023-03-30T01:05:24.435Z,2.50
2023-03-30T01:07:52.232Z,2.10
2023-03-30T01:10:20.606Z,2.13
2023-03-30T01:12:48.027Z,1.92
2023-03-30T01:15:16.263Z,2.45
2023-03-30T01:18:08.819Z,2.40
2023-03-30T01:21:00.981Z,2.13
2023-03-30T01:23:47.041Z,2.05
2023-03-30T01:26:31.613Z,2.30
2023-03-30T01:29:23.896Z,2.70
2023-03-30T01:32:32.665Z,2.38
2023-03-30T01:35:05.888Z,2.47
2023-03-30T01:38:07.213Z,2.05
2023-03-30T01:41:06.560Z,2.10
2023-03-30T01:44:00.100Z,2.40
2023-03-30T01:46:30.627Z,2.00
2023-03-30T01:49:15.679Z,2.15
2023-03-30T01:51:56.749Z,2.30
2023-03-30T01:54:28.343Z,2.40
2023-03-30T01:57:15.573Z,2.00
2023-03-30T02:00:13.153Z,2.10
2023-03-30T02:02:44.910Z,2.58
2023-03-30T02:05:18.205Z,2.35
2023-03-30T02:07:56.061Z,1.98
2023-03-30T02:10:27.678Z,1.92
2023-03-30T02:12:57.084Z,2.17
2023-03-30T02:15:26.425Z,1.98
2023-03-30T02:17:53.213Z,1.80
2023-03-30T02:20:19.998Z,2.13
2023-03-30T02:22:48.319Z,2.30
2023-03-30T02:25:15.784Z,2.30
2023-03-30T02:27:42.810Z,2.30
2023-03-30T02:30:10.180Z,2.10
2023-03-30T02:32:53.161Z,2.53
2023-03-30T02:35:31.957Z,2.50
2023-03-30T02:38:34.784Z,2.15
2023-03-30T02:41:30.920Z,2.33
2023-03-30T02:44:22.130Z,2.42
2023-03-30T02:47:12.721Z,2.42
2023-03-30T02:49:46.706Z,2.65
2023-03-30T02:52:34.283Z,2.10
2023-03-30T02:55:13.612Z,2.33
2023-03-30T02:58:12.938Z,3.00
2023-03-30T03:01:03.489Z,2.70
2023-03-30T03:03:36.602Z,2.55
2023-03-30T03:06:04.929Z,2.10
2023-03-30T03:08:37.630Z,2.78
2023-03-30T03:11:04.856Z,2.78
2023-03-30T03:13:32.154Z,2.30
2023-03-30T03:15:58.923Z,2.30
2023-03-30T03:18:25.729Z,2.20
2023-03-30T03:20:52.480Z,2.28
2023-03-30T03:23:19.332Z,2.40
2023-03-30T03:25:46.096Z,2.45
2023-03-30T03:28:12.813Z,2.35
2023-03-30T03:30:39.780Z,2.28
2023-03-30T03:33:06.668Z,2.00
2023-03-30T03:35:33.536Z,2.42
2023-03-30T03:38:00.564Z,2.70
2023-03-30T03:40:27.549Z,3.08
2023-03-30T03:42:54.250Z,2.72
2023-03-30T03:45:21.058Z,3.67
2023-03-30T03:47:51.277Z,3.83
2023-03-30T03:50:18.749Z,3.40
2023-03-30T03:52:45.871Z,3.00
2023-03-30T03:55:13.000Z,2.67
2023-03-30T03:57:40.380Z,3.55
2023-03-30T04:00:17.008Z,3.72
2023-03-30T04:02:44.536Z,2.70
2023-03-30T04:05:11.832Z,3.53
2023-03-30T04:07:38.628Z,2.92
2023-03-30T04:10:07.285Z,2.53
2023-03-30T04:12:34.222Z,2.97
2023-03-30T04:15:01.148Z,2.80
2023-03-30T04:17:28.245Z,2.70
2023-03-30T04:19:55.618Z,3.25
2023-03-30T04:22:26.169Z,2.55
2023-03-30T04:24:53.004Z,2.85
2023-03-30T04:27:19.826Z,3.00
2023-03-30T04:29:46.641Z,2.92
2023-03-30T04:32:13.648Z,3.17
2023-03-30T04:34:43.263Z,3.17
2023-03-30T04:37:10.948Z,3.10
2023-03-30T04:39:38.708Z,4.53
2023-03-30T04:42:06.301Z,4.55
2023-03-30T04:44:33.096Z,4.07
2023-03-30T04:46:59.797Z,3.40
2023-03-30T04:49:26.665Z,3.00
2023-03-30T04:51:54.807Z,3.03
2023-03-30T04:54:21.690Z,2.80
2023-03-30T04:56:49.092Z,3.00
2023-03-30T04:59:16.259Z,2.63
2023-03-30T05:01:43.349Z,2.50
2023-03-30T05:04:10.205Z,2.70
2023-03-30T05:06:39.168Z,2.28
2023-03-30T05:09:06.226Z,2.40
2023-03-30T05:11:33.059Z,2.70
2023-03-30T05:13:59.834Z,2.90
2023-03-30T05:16:27.053Z,2.80
2023-03-30T05:18:54.583Z,2.67
2023-03-30T05:21:21.536Z,2.72
2023-03-30T05:23:48.402Z,2.67
2023-03-30T05:26:15.296Z,2.97
2023-03-30T05:28:43.179Z,2.70
2023-03-30T05:31:09.977Z,2.63
2023-03-30T05:33:36.730Z,2.30
2023-03-30T05:36:03.975Z,2.67
2023-03-30T05:38:30.749Z,2.40
2023-03-30T05:40:58.274Z,3.15
2023-03-30T05:43:25.050Z,3.13
2023-03-30T05:45:51.800Z,11.75
2023-03-30T05:48:18.788Z,8.90
2023-03-30T05:50:47.754Z,5.07
2023-03-30T05:53:14.687Z,4.82
2023-03-30T05:55:44.846Z,3.78
2023-03-30T05:58:11.816Z,3.50
2023-03-30T06:00:39.093Z,3.00
2023-03-30T06:03:05.894Z,3.10
2023-03-30T06:05:34.664Z,3.35
2023-03-30T06:08:01.457Z,2.90
2023-03-30T06:10:28.383Z,3.28
2023-03-30T06:12:55.324Z,2.83
2023-03-30T06:15:22.249Z,3.10
2023-03-30T06:17:49.349Z,2.70
2023-03-30T06:20:16.135Z,2.92
2023-03-30T06:22:43.053Z,2.60
2023-03-30T06:25:10.228Z,2.83
2023-03-30T06:27:37.450Z,2.95
2023-03-30T06:30:04.708Z,2.92
2023-03-30T06:32:31.677Z,3.72
2023-03-30T06:34:58.415Z,2.97
2023-03-30T06:37:25.310Z,3.10
2023-03-30T06:39:52.574Z,2.80
2023-03-30T06:42:19.381Z,2.72
2023-03-30T06:44:48.068Z,2.65
2023-03-30T06:47:16.278Z,2.65
2023-03-30T06:49:43.066Z,3.17
2023-03-30T06:52:11.529Z,2.60
2023-03-30T06:54:41.113Z,2.78
2023-03-30T06:57:08.281Z,3.30
2023-03-30T06:59:35.188Z,2.92
2023-03-30T07:02:03.430Z,3.22
2023-03-30T07:04:30.224Z,3.08
2023-03-30T07:06:57.884Z,3.10
2023-03-30T07:09:25.371Z,2.50
2023-03-30T07:11:53.880Z,3.65
2023-03-30T07:14:22.932Z,4.80
2023-03-30T07:16:49.837Z,4.82
2023-03-30T07:19:16.620Z,4.90
2023-03-30T07:21:43.652Z,3.90
2023-03-30T07:24:10.631Z,4.38
2023-03-30T07:26:37.569Z,3.20
2023-03-30T07:29:05.662Z,3.00
2023-03-30T07:31:32.533Z,3.30
2023-03-30T07:33:59.290Z,3.75
2023-03-30T07:36:26.342Z,3.55
2023-03-30T07:38:53.344Z,3.30
2023-03-30T07:41:20.157Z,4.80
2023-03-30T07:43:47.047Z,5.65
2023-03-30T07:46:14.437Z,5.10
2023-03-30T07:48:41.840Z,4.55
2023-03-30T07:51:13.794Z,3.10
2023-03-30T07:53:41.135Z,2.55
2023-03-30T07:56:08.131Z,2.67
2023-03-30T07:58:35.394Z,3.20
2023-03-30T08:01:03.703Z,5.35
2023-03-30T08:03:32.304Z,5.97
2023-03-30T08:06:04.068Z,3.35
2023-03-30T08:08:32.035Z,3.35
2023-03-30T08:10:59.105Z,4.10
2023-03-30T08:13:26.225Z,3.33
2023-03-30T08:15:54.549Z,3.42
2023-03-30T08:18:21.624Z,3.65
2023-03-30T08:20:51.858Z,3.97
2023-03-30T08:23:21.310Z,4.30
2023-03-30T08:25:52.313Z,4.60
2023-03-30T08:28:21.481Z,5.18
2023-03-30T08:30:48.695Z,4.20
2023-03-30T08:33:15.921Z,4.53
2023-03-30T08:35:49.549Z,3.85
2023-03-30T08:38:17.347Z,3.93
2023-03-30T08:40:46.919Z,3.50
2023-03-30T08:43:32.787Z,3.67
2023-03-30T08:46:01.026Z,6.18
2023-03-30T08:48:32.726Z,4.63
2023-03-30T08:51:24.823Z,4.20
2023-03-30T08:54:05.551Z,4.63
2023-03-30T08:56:40.054Z,4.68
2023-03-30T08:59:11.209Z,5.78
2023-03-30T09:02:13.820Z,5.50
2023-03-30T09:05:19.517Z,4.00
2023-03-30T09:08:04.853Z,3.67
2023-03-30T09:10:38.108Z,3.90
2023-03-30T09:13:06.704Z,3.60
2023-03-30T09:15:44.272Z,3.50
2023-03-30T09:18:20.402Z,3.50
2023-03-30T09:20:51.111Z,4.32
2023-03-30T09:23:18.721Z,4.07
2023-03-30T09:25:49.393Z,3.67
2023-03-30T09:28:38.930Z,2.97
2023-03-30T09:31:24.831Z,3.13
2023-03-30T09:34:07.169Z,3.22
2023-03-30T09:36:53.269Z,4.00
2023-03-30T09:39:21.981Z,4.30
2023-03-30T09:42:07.630Z,4.22
2023-03-30T09:45:15.299Z,3.83
2023-03-30T09:47:42.679Z,3.78
2023-03-30T09:50:14.948Z,3.65
2023-03-30T09:52:53.748Z,3.55
2023-03-30T09:55:36.547Z,3.85
2023-03-30T09:58:26.383Z,4.25
2023-03-30T10:01:12.526Z,5.47
2023-03-30T10:03:41.341Z,5.60
2023-03-30T10:06:09.657Z,4.70
2023-03-30T10:08:44.403Z,5.45
2023-03-30T10:11:11.727Z,5.63
2023-03-30T10:13:42.619Z,5.55
2023-03-30T10:16:23.276Z,5.85
2023-03-30T10:18:53.637Z,6.20
2023-03-30T10:21:27.031Z,6.20
2023-03-30T10:24:13.763Z,8.57
2023-03-30T10:26:45.646Z,4.70
2023-03-30T10:29:23.119Z,3.95
2023-03-30T10:32:00.295Z,4.15
2023-03-30T10:34:40.970Z,7.80
2023-03-30T10:37:13.617Z,6.30
2023-03-30T10:39:43.887Z,6.45
2023-03-30T10:42:16.947Z,5.30
2023-03-30T10:44:50.411Z,5.35
2023-03-30T10:47:38.633Z,5.45
2023-03-30T10:50:06.055Z,4.45
2023-03-30T10:53:05.112Z,4.38
2023-03-30T10:55:44.690Z,5.93
2023-03-30T10:58:30.401Z,4.20
2023-03-30T11:01:13.647Z,4.30
2023-03-30T11:03:45.752Z,5.40
2023-03-30T11:06:28.011Z,5.00
2023-03-30T11:08:58.799Z,5.97
2023-03-30T11:11:37.845Z,5.78
2023-03-30T11:14:12.742Z,6.32
2023-03-30T11:16:47.795Z,5.68
2023-03-30T11:19:21.677Z,5.95
2023-03-30T11:22:06.464Z,5.47
2023-03-30T11:27:10.086Z,5.90
2023-03-30T11:29:56.793Z,5.13
2023-03-30T11:32:35.877Z,5.85
2023-03-30T11:35:20.739Z,4.78
2023-03-30T11:40:17.514Z,5.22
2023-03-30T11:42:46.359Z,9.80
2023-03-30T11:45:31.957Z,11.18
2023-03-30T11:48:21.414Z,6.15
2023-03-30T11:51:15.209Z,12.90
2023-03-30T11:53:51.952Z,6.53
2023-03-30T11:56:47.995Z,6.60
2023-03-30T11:59:31.535Z,6.35
2023-03-30T12:02:47.882Z,5.35
2023-03-30T12:05:24.578Z,5.75
2023-03-30T12:08:18.998Z,5.82
2023-03-30T12:10:50.804Z,6.20
2023-03-30T12:13:19.651Z,7.72
2023-03-30T12:16:20.890Z,10.35
2023-03-30T12:19:15.513Z,6.03
2023-03-30T12:21:57.493Z,6.80
2023-03-30T12:24:50.066Z,6.43
2023-03-30T12:27:17.081Z,5.53
2023-03-30T12:32:28.793Z,5.90
2023-03-30T12:34:57.891Z,5.93
2023-03-30T12:37:35.172Z,6.40
2023-03-30T12:40:12.897Z,6.63
2023-03-30T12:42:46.636Z,6.10
2023-03-30T12:45:31.616Z,7.30
2023-03-30T12:50:48.572Z,5.72
2023-03-30T12:53:24.472Z,6.13
2023-03-30T12:56:08.198Z,6.43
2023-03-30T12:59:00.198Z,6.77
2023-03-30T13:01:47.856Z,7.05
2023-03-30T13:04:23.818Z,7.30
2023-03-30T13:06:56.463Z,7.22
2023-03-30T13:09:26.529Z,6.72
2023-03-30T13:11:53.364Z,7.78
2023-03-30T13:14:27.910Z,6.90
2023-03-30T13:16:54.609Z,8.13
2023-03-30T13:19:28.780Z,7.38
2023-03-30T13:22:12.633Z,8.95
2023-03-30T13:24:52.119Z,7.93
2023-03-30T13:27:19.121Z,6.63
2023-03-30T13:30:01.049Z,6.40
2023-03-30T13:32:57.782Z,7.10
2023-03-30T13:36:05.191Z,7.47
2023-03-30T13:38:44.513Z,7.50
2023-03-30T13:41:14.370Z,7.18
2023-03-30T13:44:06.321Z,5.93
2023-03-30T13:46:37.965Z,7.60
2023-03-30T13:49:35.968Z,7.38
2023-03-30T13:52:16.110Z,6.72
2023-03-30T13:54:44.053Z,6.45
2023-03-30T13:57:13.785Z,6.05
2023-03-30T13:59:50.493Z,5.00
2023-03-30T14:02:19.409Z,4.43
2023-03-30T14:04:46.262Z,4.85
2023-03-30T14:07:22.195Z,3.78
2023-03-30T14:10:12.675Z,5.22
2023-03-30T14:12:41.152Z,3.70
2023-03-30T14:15:35.743Z,3.83
2023-03-30T14:18:04.686Z,4.13
2023-03-30T14:20:34.315Z,3.78
2023-03-30T14:23:03.436Z,2.85
2023-03-30T14:25:36.064Z,2.95
2023-03-30T14:28:14.865Z,3.10
2023-03-30T14:30:54.159Z,3.00
2023-03-30T14:33:21.567Z,2.63
2023-03-30T14:35:51.215Z,2.55
2023-03-30T14:38:24.736Z,2.70
2023-03-30T14:40:53.480Z,3.13
2023-03-30T14:43:27.344Z,3.20
2023-03-30T14:45:57.637Z,2.92
2023-03-30T14:48:35.225Z,3.28
2023-03-30T14:51:03.285Z,2.92
2023-03-30T14:53:31.653Z,3.55
2023-03-30T14:56:00.670Z,4.20
2023-03-30T14:58:31.689Z,3.17
2023-03-30T15:01:01.196Z,3.30
2023-03-30T15:03:33.937Z,2.92
2023-03-30T15:06:03.387Z,2.80
2023-03-30T15:08:37.600Z,2.85
2023-03-30T15:11:29.815Z,3.40
2023-03-30T15:13:58.751Z,3.10
2023-03-30T15:16:31.550Z,2.88
2023-03-30T15:19:30.067Z,3.30
2023-03-30T15:22:01.573Z,3.05
2023-03-30T15:24:36.088Z,3.03
2023-03-30T15:29:32.948Z,2.70
2023-03-30T15:32:17.038Z,3.22
2023-03-30T15:35:16.217Z,2.80
2023-03-30T15:38:12.375Z,2.90
2023-03-30T15:40:41.912Z,2.92
2023-03-30T15:43:18.086Z,3.30
2023-03-30T15:45:52.823Z,3.33
2023-03-30T15:48:58.510Z,3.65
2023-03-30T15:51:37.921Z,4.40
2023-03-30T15:54:13.600Z,4.03
2023-03-30T15:56:49.344Z,4.32
2023-03-30T15:59:19.708Z,4.38
2023-03-30T16:01:54.702Z,4.10
2023-03-30T16:04:24.249Z,3.85
2023-03-30T16:06:52.964Z,4.63
2023-03-30T16:09:19.892Z,6.70
2023-03-30T16:11:47.009Z,5.40
2023-03-30T16:14:17.935Z,5.32
2023-03-30T16:16:47.732Z,5.60
2023-03-30T16:19:17.464Z,5.72
2023-03-30T16:21:45.517Z,6.38
2023-03-30T16:24:12.855Z,6.63
2023-03-30T16:26:39.787Z,6.50
2023-03-30T16:29:22.016Z,7.32
2023-03-30T16:31:50.986Z,8.55
2023-03-30T16:34:18.820Z,9.88
2023-03-30T16:36:46.139Z,6.05
2023-03-30T16:39:21.508Z,7.60
2023-03-30T16:41:49.588Z,7.13
2023-03-30T16:44:17.861Z,8.50
2023-03-30T16:46:45.007Z,8.77
2023-03-30T16:49:16.681Z,9.07
2023-03-30T16:51:44.574Z,9.23
2023-03-30T16:54:23.021Z,9.60
2023-03-30T16:56:56.836Z,8.77
2023-03-30T16:59:26.167Z,7.03
2023-03-30T17:01:52.981Z,5.65
2023-03-30T17:04:19.964Z,12.15
2023-03-30T17:06:46.819Z,8.00
2023-03-30T17:09:18.372Z,7.40
2023-03-30T17:11:46.776Z,5.03
2023-03-30T17:14:13.922Z,5.72
2023-03-30T17:16:41.367Z,5.57
2023-03-30T17:19:13.256Z,10.88
2023-03-30T17:21:43.869Z,16.23
2023-03-30T17:24:12.565Z,11.57
2023-03-30T17:26:39.843Z,12.27
2023-03-30T17:29:06.553Z,14.20
2023-03-30T17:31:33.488Z,10.43
2023-03-30T17:34:00.645Z,11.88
2023-03-30T17:36:28.731Z,10.82
2023-03-30T17:38:56.770Z,12.40
2023-03-30T17:41:23.685Z,11.18
2023-03-30T17:43:51.639Z,9.60
2023-03-30T17:46:20.356Z,11.75
2023-03-30T17:48:47.606Z,13.90
2023-03-30T17:51:14.372Z,12.13
2023-03-30T17:53:41.082Z,13.85
2023-03-30T17:56:10.533Z,16.27
2023-03-30T17:58:37.372Z,14.60
2023-03-30T18:01:07.513Z,14.32
2023-03-30T18:03:36.444Z,27.63
2023-03-30T18:06:03.237Z,27.85
2023-03-30T18:08:30.267Z,15.32
2023-03-30T18:10:59.127Z,8.48
2023-03-30T18:13:27.668Z,12.63
2023-03-30T18:15:56.666Z,8.07
2023-03-30T18:18:26.276Z,6.60
2023-03-30T18:20:57.097Z,5.85
2023-03-30T18:23:24.178Z,7.00
2023-03-30T18:25:51.484Z,8.73
2023-03-30T18:28:22.110Z,7.65
2023-03-30T18:30:49.840Z,6.30
2023-03-30T18:33:17.190Z,7.70
2023-03-30T18:35:46.752Z,8.95
2023-03-30T18:38:15.494Z,8.65
2023-03-30T18:40:45.492Z,8.38
2023-03-30T18:43:12.817Z,10.15
2023-03-30T18:45:48.630Z,10.57
2023-03-30T18:48:18.076Z,15.25
2023-03-30T18:50:47.267Z,11.38
2023-03-30T18:53:16.793Z,10.77
2023-03-30T18:55:45.919Z,15.13
2023-03-30T18:58:20.753Z,30.52
2023-03-30T19:00:48.993Z,27.10
2023-03-30T19:03:17.114Z,14.02
2023-03-30T19:05:44.882Z,9.70
2023-03-30T19:08:15.758Z,11.25
2023-03-30T19:10:44.434Z,13.68
2023-03-30T19:13:15.920Z,21.35
2023-03-30T19:15:43.409Z,15.10
2023-03-30T19:18:11.188Z,12.52
2023-03-30T19:20:41.119Z,24.65
2023-03-30T19:23:12.879Z,31.77
2023-03-30T19:25:40.471Z,21.85
2023-03-30T19:28:08.052Z,15.93
2023-03-30T19:30:38.991Z,25.88
2023-03-30T19:33:08.868Z,23.77
2023-03-30T19:35:36.094Z,23.70
2023-03-30T19:38:03.007Z,15.13
2023-03-30T19:40:31.341Z,13.18
2023-03-30T19:42:58.038Z,14.38
2023-03-30T19:45:24.889Z,19.58
2023-03-30T19:47:52.235Z,18.10
2023-03-30T19:50:20.863Z,18.42
2023-03-30T19:52:50.045Z,16.33
2023-03-30T19:55:19.309Z,14.75
2023-03-30T19:57:46.446Z,14.73
2023-03-30T20:00:16.262Z,15.40
2023-03-30T20:02:46.535Z,17.20
2023-03-30T20:05:13.450Z,15.65
2023-03-30T20:07:40.794Z,12.05
2023-03-30T20:10:10.860Z,11.63
2023-03-30T20:12:38.321Z,9.85
2023-03-30T20:15:06.651Z,10.02
2023-03-30T20:17:34.479Z,11.05
2023-03-30T20:20:06.756Z,11.43
2023-03-30T20:22:35.459Z,13.35
2023-03-30T20:25:04.964Z,14.23
2023-03-30T20:27:33.828Z,13.25
2023-03-30T20:30:01.000Z,12.18
2023-03-30T20:32:28.214Z,13.75
2023-03-30T20:34:55.000Z,22.30
2023-03-30T20:37:21.871Z,18.38
2023-03-30T20:39:50.703Z,10.63
2023-03-30T20:42:28.220Z,11.57
2023-03-30T20:44:55.827Z,10.18
2023-03-30T20:47:23.592Z,9.20
2023-03-30T20:49:50.448Z,9.00
2023-03-30T20:52:17.425Z,9.05
2023-03-30T20:54:45.058Z,10.52
2023-03-30T20:57:12.479Z,9.43
2023-03-30T20:59:39.758Z,12.60
2023-03-30T21:02:07.147Z,9.45
2023-03-30T21:04:34.029Z,11.10
2023-03-30T21:07:01.105Z,8.68
2023-03-30T21:09:28.082Z,12.38
2023-03-30T21:11:54.835Z,11.25
2023-03-30T21:14:23.753Z,10.95
2023-03-30T21:16:50.575Z,9.65
2023-03-30T21:19:17.380Z,11.75
2023-03-30T21:21:44.717Z,13.00
2023-03-30T21:24:11.727Z,14.90
2023-03-30T21:26:38.632Z,13.95
2023-03-30T21:29:06.002Z,16.50
2023-03-30T21:31:32.948Z,15.30
2023-03-30T21:34:00.185Z,16.65
2023-03-30T21:36:27.372Z,16.38
2023-03-30T21:38:56.137Z,14.77
2023-03-30T21:41:24.493Z,15.25
2023-03-30T21:43:51.578Z,19.10
2023-03-30T21:46:21.026Z,20.75
2023-03-30T21:48:51.204Z,17.13
2023-03-30T21:51:30.433Z,18.05
2023-03-30T21:53:58.274Z,17.30
2023-03-30T21:56:27.622Z,14.52
2023-03-30T21:58:54.531Z,14.32
2023-03-30T22:01:24.123Z,14.77
2023-03-30T22:03:52.068Z,13.70
2023-03-30T22:06:19.581Z,13.65
2023-03-30T22:08:46.999Z,14.80
2023-03-30T22:11:23.862Z,14.50
2023-03-30T22:13:52.200Z,14.77
2023-03-30T22:16:35.090Z,13.77
2023-03-30T22:19:02.560Z,14.75
2023-03-30T22:21:34.304Z,14.57
2023-03-30T22:24:02.974Z,15.05
2023-03-30T22:26:29.717Z,16.20
2023-03-30T22:28:56.808Z,16.40
2023-03-30T22:31:23.932Z,14.88
2023-03-30T22:33:52.333Z,18.27
2023-03-30T22:36:23.223Z,15.20
2023-03-30T22:38:51.587Z,13.48
2023-03-30T22:41:23.743Z,14.00
2023-03-30T22:43:52.872Z,14.63
2023-03-30T22:46:20.071Z,14.07
2023-03-30T22:48:49.212Z,16.33
2023-03-30T22:51:23.499Z,15.68
2023-03-30T22:53:50.515Z,18.27
2023-03-30T22:56:17.338Z,21.17
2023-03-30T22:58:44.126Z,16.25
2023-03-30T23:01:12.136Z,14.27
2023-03-30T23:03:39.289Z,14.98
2023-03-30T23:06:06.668Z,16.10
2023-03-30T23:08:33.868Z,17.63
2023-03-30T23:11:04.962Z,18.77
2023-03-30T23:13:37.243Z,17.58
2023-03-30T23:16:07.384Z,17.98
2023-03-30T23:18:35.281Z,19.00
2023-03-30T23:21:06.257Z,18.48
2023-03-30T23:23:35.011Z,19.58
2023-03-30T23:26:02.894Z,19.35
2023-03-30T23:28:31.537Z,18.75
2023-03-30T23:30:58.370Z,22.38
2023-03-30T23:33:25.356Z,21.17
2023-03-30T23:35:53.290Z,17.83
2023-03-30T23:38:20.996Z,18.20
2023-03-30T23:40:47.783Z,17.92
2023-03-30T23:43:14.569Z,19.13
2023-03-30T23:45:43.511Z,19.38
2023-03-30T23:48:10.599Z,19.15
2023-03-30T23:50:37.392Z,16.08
2023-03-30T23:53:04.275Z,20.00
2023-03-30T23:55:31.286Z,17.23
2023-03-30T23:57:57.970Z,19.67
